Wetterdaten: Woche 06.02.23 - 12.02.23 (KW6)
Datum Zeit Temp. Aussen Temp. o. S. Temp +5cm Feuchte Auss Luftdruck Regen Sonnenschein Regendauer Solar Windben Empfang
06.02.2023 00:00 2,6 C 1,4 C -1,3 C 91 % 1042,6 hPa 0,0 l/m 0,00 h 0,00 h 0 W/m 6,0 km/h (2 Bft) 75,07 %
06.02.2023 01:00 1,9 C 0,6 C -2,0 C 92 % 1042,5 hPa 0,0 l/m 0,00 h 0,00 h 0 W/m 2,6 km/h (1 Bft) 90,11 %
06.02.2023 02:00 1,3 C 0,0 C -2,2 C 93 % 1042,4 hPa 0,0 l/m 0,00 h 0,00 h 0 W/m 3,5 km/h (1 Bft) 91,23 %
06.02.2023 03:00 1,2 C 0,1 C -2,2 C 94 % 1042,3 hPa 0,0 l/m 0,00 h 0,00 h 0 W/m 5,4 km/h (1 Bft) 76,60 %
06.02.2023 04:00 1,0 C -0,5 C -2,6 C 95 % 1042,1 hPa 0,0 l/m 0,00 h 0,00 h 0 W/m 0,5 km/h (0 Bft) 92,96 %
06.02.2023 05:00 0,2 C -1,0 C -3,0 C 95 % 1042,2 hPa 0,0 l/m 0,00 h 0,00 h 0 W/m 0,0 km/h (0 Bft) 71,54 %
06.02.2023 06:00 0,3 C -0,1 C -2,4 C 96 % 1042,4 hPa 0,0 l/m 0,00 h 0,00 h 0 W/m 0,1 km/h (0 Bft) 73,98 %
06.02.2023 07:00 0,9 C 0,4 C -2,0 C 96 % 1042,2 hPa 0,0 l/m 0,00 h 0,00 h 0 W/m 2,0 km/h (1 Bft) 91,76 %
06.02.2023 08:00 1,1 C 0,6 C -1,7 C 97 % 1042,1 hPa 0,0 l/m 0,00 h 0,00 h 19 W/m 6,6 km/h (2 Bft) 96,48 %
06.02.2023 09:00 1,4 C 1,0 C -1,3 C 97 % 1042,1 hPa 0,2 l/m 0,00 h 0,00 h 44 W/m 3,6 km/h (1 Bft) 98,51 %
06.02.2023 10:00 2,0 C 2,0 C -0,3 C 98 % 1042,1 hPa 0,0 l/m 0,00 h 0,00 h 75 W/m 1,5 km/h (1 Bft) 96,27 %
06.02.2023 11:00 2,5 C 3,0 C 0,2 C 98 % 1042,4 hPa 0,0 l/m 0,00 h 0,00 h 94 W/m 2,2 km/h (1 Bft) 98,49 %
06.02.2023 12:00 3,1 C 4,6 C 1,3 C 98 % 1041,8 hPa 0,0 l/m 0,20 h 0,00 h 145 W/m 2,3 km/h (1 Bft) 95,76 %
06.02.2023 13:00 4,5 C 6,7 C 2,5 C 98 % 1041,2 hPa 0,0 l/m 0,33 h 0,00 h 188 W/m 5,2 km/h (1 Bft) 94,85 %
06.02.2023 14:00 4,7 C 4,8 C 2,1 C 96 % 1040,8 hPa 0,0 l/m 0,00 h 0,00 h 86 W/m 8,5 km/h (2 Bft) 98,72 %
06.02.2023 15:00 5,2 C 5,7 C 2,4 C 94 % 1040,6 hPa 0,0 l/m 0,00 h 0,00 h 93 W/m 9,0 km/h (2 Bft) 98,00 %
06.02.2023 16:00 5,3 C 5,0 C 2,2 C 92 % 1040,5 hPa 0,0 l/m 0,00 h 0,00 h 32 W/m 4,8 km/h (1 Bft) 95,15 %
06.02.2023 17:00 5,2 C 4,3 C 1,7 C 92 % 1040,2 hPa 0,0 l/m 0,00 h 0,00 h 3 W/m 0,2 km/h (0 Bft) 98,51 %
06.02.2023 18:00 4,4 C 2,8 C 0,2 C 93 % 1040,1 hPa 0,0 l/m 0,00 h 0,00 h 0 W/m 0,0 km/h (0 Bft) 97,02 %
06.02.2023 19:00 3,8 C 3,1 C 0,4 C 94 % 1040,2 hPa 0,0 l/m 0,00 h 0,00 h 0 W/m 0,0 km/h (0 Bft) 96,82 %
06.02.2023 20:00 3,5 C 2,1 C -0,4 C 95 % 1040,2 hPa 0,0 l/m 0,00 h 0,00 h 0 W/m 0,0 km/h (0 Bft) 97,51 %
06.02.2023 21:00 2,8 C 1,5 C -1,1 C 95 % 1040,3 hPa 0,0 l/m 0,00 h 0,00 h 0 W/m 0,0 km/h (0 Bft) 98,21 %
06.02.2023 22:00 1,6 C 0,1 C -2,2 C 95 % 1040,1 hPa 0,0 l/m 0,00 h 0,00 h 0 W/m 0,0 km/h (0 Bft) 96,80 %
06.02.2023 23:00 0,8 C -0,6 C -2,6 C 95 % 1039,9 hPa 0,0 l/m 0,00 h 0,00 h 0 W/m 0,0 km/h (0 Bft) 95,23 %
07.02.2023 00:00 0,3 C -1,1 C -3,1 C 95 % 1040,1 hPa 0,0 l/m 0,00 h 0,00 h 0 W/m 0,0 km/h (0 Bft) 98,83 %
07.02.2023 01:00 -0,5 C -1,7 C -3,6 C 95 % 1040,0 hPa 0,0 l/m 0,00 h 0,00 h 0 W/m 0,0 km/h (0 Bft) 97,30 %
07.02.2023 02:00 -0,8 C -1,8 C -3,8 C 96 % 1040,2 hPa 0,0 l/m 0,00 h 0,00 h 0 W/m 0,0 km/h (0 Bft) 96,96 %
07.02.2023 03:00 -1,0 C -1,7 C -3,8 C 96 % 1040,1 hPa 0,0 l/m 0,00 h 0,00 h 0 W/m 2,0 km/h (1 Bft) 95,68 %
07.02.2023 04:00 -1,5 C -2,5 C -4,2 C 96 % 1039,9 hPa 0,0 l/m 0,00 h 0,00 h 0 W/m 1,0 km/h (0 Bft) 98,50 %
07.02.2023 05:00 -2,2 C -3,2 C -5,0 C 95 % 1039,8 hPa 0,0 l/m 0,00 h 0,00 h 0 W/m 1,0 km/h (0 Bft) 98,07 %
07.02.2023 06:00 -2,5 C -3,3 C -5,1 C 95 % 1039,7 hPa 0,0 l/m 0,00 h 0,00 h 0 W/m 0,3 km/h (0 Bft) 96,83 %
07.02.2023 07:00 -2,8 C -3,5 C -5,5 C 95 % 1040,1 hPa 0,0 l/m 0,00 h 0,00 h 0 W/m 1,5 km/h (1 Bft) 94,88 %
07.02.2023 08:00 -2,7 C -3,4 C -5,2 C 95 % 1040,6 hPa 0,0 l/m 0,00 h 0,00 h 12 W/m 1,1 km/h (0 Bft) 97,81 %
07.02.2023 09:00 -2,0 C -2,2 C -4,5 C 96 % 1040,9 hPa 0,0 l/m 0,20 h 0,00 h 67 W/m 1,3 km/h (1 Bft) 93,82 %
07.02.2023 10:00 0,8 C 11,5 C -2,7 C 96 % 1040,8 hPa 0,0 l/m 0,87 h 0,00 h 250 W/m 3,6 km/h (1 Bft) 97,06 %
07.02.2023 11:00 3,7 C 11,9 C -0,2 C 82 % 1040,7 hPa 0,0 l/m 1,00 h 0,00 h 325 W/m 10,6 km/h (2 Bft) 98,08 %
07.02.2023 12:00 3,9 C 7,0 C 0,2 C 75 % 1040,6 hPa 0,0 l/m 0,27 h 0,00 h 151 W/m 10,1 km/h (2 Bft) 96,25 %
07.02.2023 13:00 5,1 C 12,2 C 0,9 C 67 % 1040,3 hPa 0,0 l/m 1,00 h 0,00 h 429 W/m 13,5 km/h (3 Bft) 92,11 %
07.02.2023 14:00 6,0 C 8,8 C 0,9 C 60 % 1039,8 hPa 0,0 l/m 1,00 h 0,00 h 369 W/m 10,8 km/h (2 Bft) 97,49 %
07.02.2023 15:00 6,2 C 6,9 C 0,9 C 57 % 1039,6 hPa 0,0 l/m 1,00 h 0,00 h 237 W/m 8,1 km/h (2 Bft) 95,59 %
07.02.2023 16:00 5,6 C 4,7 C 0,5 C 57 % 1039,5 hPa 0,0 l/m 0,07 h 0,00 h 32 W/m 5,0 km/h (1 Bft) 95,45 %
07.02.2023 17:00 4,7 C 2,3 C -1,9 C 62 % 1039,5 hPa 0,0 l/m 0,00 h 0,00 h 10 W/m 0,4 km/h (0 Bft) 96,07 %
07.02.2023 18:00 2,6 C 0,2 C -3,8 C 71 % 1040,0 hPa 0,0 l/m 0,00 h 0,00 h 0 W/m 0,0 km/h (0 Bft) 96,92 %
07.02.2023 19:00 1,0 C -1,0 C -4,5 C 76 % 1040,0 hPa 0,0 l/m 0,00 h 0,00 h 0 W/m 0,0 km/h (0 Bft) 97,00 %
07.02.2023 20:00 -0,0 C -1,5 C -5,1 C 81 % 1039,7 hPa 0,0 l/m 0,00 h 0,00 h 0 W/m 0,0 km/h (0 Bft) 98,63 %
07.02.2023 21:00 -0,4 C -1,7 C -5,6 C 85 % 1039,7 hPa 0,0 l/m 0,00 h 0,00 h 0 W/m 0,0 km/h (0 Bft) 96,72 %
07.02.2023 22:00 -0,9 C -2,2 C -5,8 C 87 % 1039,6 hPa 0,0 l/m 0,00 h 0,00 h 0 W/m 0,0 km/h (0 Bft) 96,01 %
07.02.2023 23:00 -1,6 C -2,5 C -5,9 C 88 % 1039,6 hPa 0,0 l/m 0,00 h 0,00 h 0 W/m 0,5 km/h (0 Bft) 97,73 %
08.02.2023 00:00 -1,5 C -2,0 C -5,1 C 87 % 1039,8 hPa 0,0 l/m 0,00 h 0,00 h 0 W/m 2,3 km/h (1 Bft) 98,42 %
08.02.2023 01:00 -1,7 C -2,5 C -5,6 C 85 % 1039,5 hPa 0,0 l/m 0,00 h 0,00 h 0 W/m 1,7 km/h (1 Bft) 97,88 %
08.02.2023 02:00 -1,9 C -2,4 C -5,5 C 84 % 1039,2 hPa 0,0 l/m 0,00 h 0,00 h 0 W/m 2,6 km/h (1 Bft) 96,34 %
08.02.2023 03:00 -1,7 C -2,7 C -5,7 C 83 % 1039,0 hPa 0,0 l/m 0,00 h 0,00 h 0 W/m 2,5 km/h (1 Bft) 96,59 %
08.02.2023 04:00 -2,2 C -3,1 C -6,1 C 84 % 1038,9 hPa 0,0 l/m 0,00 h 0,00 h 0 W/m 2,8 km/h (1 Bft) 94,80 %
08.02.2023 05:00 -2,5 C -3,5 C -6,4 C 85 % 1039,0 hPa 0,0 l/m 0,00 h 0,00 h 0 W/m 2,1 km/h (1 Bft) 98,26 %
08.02.2023 06:00 -2,8 C -3,9 C -6,7 C 86 % 1039,0 hPa 0,0 l/m 0,00 h 0,00 h 0 W/m 1,1 km/h (1 Bft) 95,23 %
08.02.2023 07:00 -2,8 C -3,5 C -6,5 C 87 % 1039,1 hPa 0,0 l/m 0,00 h 0,00 h 0 W/m 2,8 km/h (1 Bft) 97,15 %
08.02.2023 08:00 -2,7 C -3,3 C -6,6 C 86 % 1038,9 hPa 0,0 l/m 0,00 h 0,00 h 14 W/m 1,2 km/h (1 Bft) 97,00 %
08.02.2023 09:00 -1,8 C -1,3 C -5,0 C 86 % 1038,7 hPa 0,0 l/m 0,40 h 0,00 h 88 W/m 6,2 km/h (2 Bft) 97,63 %
08.02.2023 10:00 1,8 C 8,7 C -2,7 C 72 % 1038,6 hPa 0,0 l/m 0,98 h 0,00 h 285 W/m 15,4 km/h (3 Bft) 97,41 %
08.02.2023 11:00 4,4 C 11,8 C -1,1 C 61 % 1038,7 hPa 0,0 l/m 0,98 h 0,00 h 341 W/m 11,9 km/h (2 Bft) 91,50 %
08.02.2023 12:00 5,3 C 8,1 C 0,7 C 55 % 1038,3 hPa 0,0 l/m 0,20 h 0,00 h 147 W/m 5,6 km/h (1 Bft) 95,55 %
08.02.2023 13:00 6,9 C 13,6 C 1,6 C 46 % 1037,7 hPa 0,0 l/m 1,00 h 0,00 h 438 W/m 14,9 km/h (3 Bft) 97,63 %
08.02.2023 14:00 7,6 C 10,0 C 1,9 C 44 % 1036,9 hPa 0,0 l/m 1,00 h 0,00 h 373 W/m 12,9 km/h (3 Bft) 98,16 %
08.02.2023 15:00 7,7 C 8,3 C 1,8 C 43 % 1036,1 hPa 0,0 l/m 1,00 h 0,00 h 244 W/m 11,4 km/h (2 Bft) 98,01 %
08.02.2023 16:00 7,0 C 5,9 C 1,3 C 47 % 1035,5 hPa 0,0 l/m 0,07 h 0,00 h 34 W/m 8,4 km/h (2 Bft) 95,81 %
08.02.2023 17:00 5,9 C 4,2 C -0,7 C 49 % 1035,0 hPa 0,0 l/m 0,00 h 0,00 h 11 W/m 3,1 km/h (1 Bft) 98,34 %
08.02.2023 18:00 4,1 C 2,3 C -2,9 C 54 % 1034,6 hPa 0,0 l/m 0,00 h 0,00 h 0 W/m 4,2 km/h (1 Bft) 95,15 %
08.02.2023 19:00 3,3 C 2,4 C -1,6 C 55 % 1034,2 hPa 0,0 l/m 0,00 h 0,00 h 0 W/m 11,3 km/h (2 Bft) 95,55 %
08.02.2023 20:00 2,8 C 2,0 C -1,9 C 59 % 1033,9 hPa 0,0 l/m 0,00 h 0,00 h 0 W/m 14,8 km/h (3 Bft) 95,25 %
08.02.2023 21:00 2,1 C 1,2 C -2,6 C 62 % 1034,1 hPa 0,0 l/m 0,00 h 0,00 h 0 W/m 10,9 km/h (2 Bft) 98,65 %
08.02.2023 22:00 1,4 C 0,5 C -3,3 C 64 % 1034,1 hPa 0,0 l/m 0,00 h 0,00 h 0 W/m 10,4 km/h (2 Bft) 96,31 %
08.02.2023 23:00 0,7 C -0,4 C -3,9 C 67 % 1033,9 hPa 0,0 l/m 0,00 h 0,00 h 0 W/m 9,0 km/h (2 Bft) 94,29 %
09.02.2023 00:00 0,2 C -0,6 C -4,0 C 69 % 1033,4 hPa 0,0 l/m 0,00 h 0,00 h 0 W/m 13,3 km/h (3 Bft) 98,39 %
09.02.2023 01:00 -0,0 C -0,9 C -4,4 C 69 % 1033,2 hPa 0,0 l/m 0,00 h 0,00 h 0 W/m 12,6 km/h (3 Bft) 95,64 %
09.02.2023 02:00 -0,7 C -1,6 C -5,0 C 72 % 1033,2 hPa 0,0 l/m 0,00 h 0,00 h 0 W/m 9,5 km/h (2 Bft) 96,48 %
09.02.2023 03:00 -1,1 C -2,1 C -5,5 C 74 % 1033,2 hPa 0,0 l/m 0,00 h 0,00 h 0 W/m 7,3 km/h (2 Bft) 95,49 %
09.02.2023 04:00 -1,5 C -2,2 C -5,6 C 76 % 1033,0 hPa 0,0 l/m 0,00 h 0,00 h 0 W/m 11,6 km/h (2 Bft) 98,36 %
09.02.2023 05:00 -1,9 C -2,8 C -6,1 C 78 % 1032,5 hPa 0,0 l/m 0,00 h 0,00 h 0 W/m 11,3 km/h (2 Bft) 96,72 %
09.02.2023 06:00 -2,2 C -2,8 C -6,1 C 81 % 1032,3 hPa 0,0 l/m 0,00 h 0,00 h 0 W/m 12,7 km/h (3 Bft) 97,06 %
09.02.2023 07:00 -2,3 C -2,9 C -6,3 C 82 % 1032,4 hPa 0,0 l/m 0,00 h 0,00 h 5 W/m 13,1 km/h (3 Bft) 98,01 %
09.02.2023 08:00 -2,3 C -2,7 C -6,3 C 82 % 1032,7 hPa 0,0 l/m 0,30 h 0,00 h 32 W/m 14,2 km/h (3 Bft) 97,16 %
09.02.2023 09:00 -1,4 C -0,9 C -5,1 C 82 % 1033,1 hPa 0,0 l/m 0,90 h 0,00 h 114 W/m 12,7 km/h (3 Bft) 96,65 %
09.02.2023 10:00 0,3 C 4,0 C -3,7 C 78 % 1033,4 hPa 0,0 l/m 1,00 h 0,00 h 228 W/m 13,4 km/h (3 Bft) 95,44 %
09.02.2023 11:00 2,3 C 6,0 C -1,8 C 71 % 1033,2 hPa 0,0 l/m 1,00 h 0,00 h 265 W/m 13,7 km/h (3 Bft) 95,25 %
09.02.2023 12:00 3,5 C 5,7 C -0,1 C 68 % 1033,1 hPa 0,0 l/m 0,60 h 0,00 h 215 W/m 13,3 km/h (3 Bft) 97,25 %
09.02.2023 13:00 4,9 C 8,7 C 0,5 C 63 % 1032,8 hPa 0,0 l/m 1,00 h 0,00 h 328 W/m 13,1 km/h (3 Bft) 99,23 %
09.02.2023 14:00 6,0 C 8,0 C 1,2 C 59 % 1032,5 hPa 0,0 l/m 1,00 h 0,00 h 300 W/m 12,5 km/h (3 Bft) 97,94 %
09.02.2023 15:00 6,1 C 6,5 C 1,2 C 58 % 1032,6 hPa 0,0 l/m 0,97 h 0,00 h 158 W/m 9,6 km/h (2 Bft) 95,88 %
09.02.2023 16:00 5,4 C 4,9 C 0,4 C 62 % 1032,9 hPa 0,0 l/m 0,10 h 0,00 h 68 W/m 5,5 km/h (1 Bft) 97,65 %
09.02.2023 17:00 4,3 C 3,3 C -1,0 C 67 % 1033,6 hPa 0,0 l/m 0,30 h 0,00 h 20 W/m 3,6 km/h (1 Bft) 96,73 %
09.02.2023 18:00 3,7 C 2,9 C -1,0 C 70 % 1034,0 hPa 0,0 l/m 0,00 h 0,00 h 0 W/m 7,0 km/h (2 Bft) 98,56 %
09.02.2023 19:00 3,6 C 3,2 C -1,0 C 73 % 1034,5 hPa 0,0 l/m 0,00 h 0,00 h 0 W/m 4,6 km/h (1 Bft) 94,50 %
09.02.2023 20:00 3,9 C 3,3 C -0,6 C 77 % 1035,0 hPa 0,0 l/m 0,00 h 0,00 h 0 W/m 6,1 km/h (2 Bft) 97,03 %
09.02.2023 21:00 4,0 C 3,3 C -0,6 C 79 % 1035,4 hPa 0,0 l/m 0,00 h 0,00 h 0 W/m 6,6 km/h (2 Bft) 98,01 %
09.02.2023 22:00 3,9 C 3,1 C -0,8 C 81 % 1035,6 hPa 0,0 l/m 0,00 h 0,00 h 0 W/m 5,1 km/h (1 Bft) 95,59 %
09.02.2023 23:00 3,1 C 2,1 C -1,6 C 85 % 1035,6 hPa 0,0 l/m 0,00 h 0,00 h 0 W/m 4,9 km/h (1 Bft) 96,56 %
10.02.2023 00:00 3,0 C 2,6 C -1,3 C 88 % 1036,0 hPa 0,0 l/m 0,00 h 0,00 h 0 W/m 1,3 km/h (1 Bft) 97,69 %
10.02.2023 01:00 3,3 C 2,8 C -1,1 C 89 % 1036,4 hPa 0,0 l/m 0,00 h 0,00 h 0 W/m 3,8 km/h (1 Bft) 96,92 %
10.02.2023 02:00 3,3 C 2,7 C -1,1 C 89 % 1036,7 hPa 0,0 l/m 0,00 h 0,00 h 0 W/m 6,1 km/h (2 Bft) 97,23 %
10.02.2023 03:00 3,3 C 2,8 C -1,1 C 89 % 1037,0 hPa 0,0 l/m 0,00 h 0,00 h 0 W/m 7,5 km/h (2 Bft) 97,30 %
10.02.2023 04:00 2,9 C 1,9 C -1,6 C 89 % 1036,9 hPa 0,0 l/m 0,00 h 0,00 h 0 W/m 6,6 km/h (2 Bft) 94,20 %
10.02.2023 05:00 2,0 C 0,6 C -3,0 C 90 % 1037,1 hPa 0,0 l/m 0,00 h 0,00 h 0 W/m 1,5 km/h (1 Bft) 96,80 %
10.02.2023 06:00 1,4 C 0,3 C -3,0 C 92 % 1037,2 hPa 0,0 l/m 0,00 h 0,00 h 0 W/m 5,2 km/h (1 Bft) 89,13 %
10.02.2023 07:00 0,8 C -0,3 C -3,7 C 93 % 1037,6 hPa 0,0 l/m 0,00 h 0,00 h 0 W/m 1,5 km/h (1 Bft) 98,08 %
10.02.2023 08:00 0,7 C 0,2 C -3,1 C 94 % 1037,7 hPa 0,0 l/m 0,00 h 0,00 h 22 W/m 7,5 km/h (2 Bft) 94,73 %
10.02.2023 09:00 1,5 C 2,4 C -2,0 C 95 % 1038,1 hPa 0,0 l/m 0,40 h 0,00 h 118 W/m 3,5 km/h (1 Bft) 97,58 %
10.02.2023 10:00 3,7 C 6,5 C 0,2 C 93 % 1038,3 hPa 0,0 l/m 0,67 h 0,00 h 182 W/m 2,7 km/h (1 Bft) 96,23 %
10.02.2023 11:00 5,7 C 11,6 C 1,7 C 88 % 1038,4 hPa 0,0 l/m 0,93 h 0,00 h 292 W/m 10,3 km/h (2 Bft) 96,83 %
10.02.2023 12:00 7,1 C 9,3 C 3,9 C 80 % 1038,1 hPa 0,0 l/m 0,20 h 0,00 h 162 W/m 11,8 km/h (2 Bft) 98,04 %
10.02.2023 13:00 7,8 C 11,8 C 3,3 C 77 % 1037,4 hPa 0,0 l/m 0,90 h 0,00 h 356 W/m 12,5 km/h (3 Bft) 96,27 %
10.02.2023 14:00 8,6 C 10,0 C 3,8 C 72 % 1036,8 hPa 0,0 l/m 0,87 h 0,00 h 256 W/m 12,7 km/h (3 Bft) 95,92 %
10.02.2023 15:00 8,8 C 9,7 C 3,9 C 70 % 1036,5 hPa 0,0 l/m 0,97 h 0,00 h 223 W/m 14,5 km/h (3 Bft) 97,06 %
10.02.2023 16:00 8,4 C 7,9 C 3,5 C 72 % 1036,4 hPa 0,0 l/m 0,23 h 0,00 h 66 W/m 10,7 km/h (2 Bft) 97,80 %
10.02.2023 17:00 7,4 C 6,4 C 2,2 C 76 % 1036,2 hPa 0,0 l/m 0,13 h 0,00 h 20 W/m 7,2 km/h (2 Bft) 95,55 %
10.02.2023 18:00 6,5 C 5,6 C 1,6 C 81 % 1036,4 hPa 0,0 l/m 0,00 h 0,00 h 0 W/m 7,3 km/h (2 Bft) 97,84 %
10.02.2023 19:00 6,5 C 5,8 C 1,9 C 85 % 1036,3 hPa 0,0 l/m 0,00 h 0,00 h 0 W/m 14,0 km/h (3 Bft) 95,52 %
10.02.2023 20:00 6,5 C 5,8 C 2,2 C 87 % 1035,9 hPa 0,0 l/m 0,00 h 0,03 h 0 W/m 18,8 km/h (3 Bft) 96,57 %
10.02.2023 21:00 6,4 C 5,6 C 1,7 C 88 % 1035,9 hPa 0,0 l/m 0,00 h 0,00 h 0 W/m 14,2 km/h (3 Bft) 94,41 %
10.02.2023 22:00 6,4 C 5,7 C 2,2 C 89 % 1035,9 hPa 0,0 l/m 0,00 h 0,00 h 0 W/m 13,3 km/h (3 Bft) 83,93 %
10.02.2023 23:00 6,6 C 6,1 C 2,2 C 88 % 1035,7 hPa 0,0 l/m 0,00 h 0,07 h 0 W/m 13,5 km/h (3 Bft) 84,68 %
11.02.2023 00:00 6,4 C 5,5 C 1,9 C 88 % 1035,7 hPa 0,0 l/m 0,00 h 0,00 h 0 W/m 11,1 km/h (2 Bft) 90,41 %
11.02.2023 01:00 5,8 C 4,8 C 1,4 C 89 % 1035,2 hPa 0,0 l/m 0,00 h 0,00 h 0 W/m 8,4 km/h (2 Bft) 77,07 %
11.02.2023 02:00 5,4 C 4,7 C 1,2 C 91 % 1035,2 hPa 0,0 l/m 0,00 h 0,00 h 0 W/m 7,3 km/h (2 Bft) 83,33 %
11.02.2023 03:00 5,6 C 5,0 C 1,7 C 91 % 1034,9 hPa 0,0 l/m 0,00 h 0,00 h 0 W/m 11,2 km/h (2 Bft) 73,51 %
11.02.2023 04:00 5,7 C 5,0 C 1,7 C 91 % 1034,6 hPa 0,0 l/m 0,00 h 0,00 h 0 W/m 13,3 km/h (3 Bft) 70,25 %
11.02.2023 05:00 5,6 C 5,0 C 1,7 C 93 % 1034,4 hPa 0,0 l/m 0,00 h 0,00 h 0 W/m 13,5 km/h (3 Bft) 98,34 %
11.02.2023 06:00 5,6 C 5,0 C 1,7 C 94 % 1034,3 hPa 0,0 l/m 0,00 h 0,00 h 0 W/m 9,1 km/h (2 Bft) 97,05 %
11.02.2023 07:00 5,6 C 5,0 C 1,7 C 94 % 1034,3 hPa 0,0 l/m 0,00 h 0,00 h 0 W/m 9,8 km/h (2 Bft) 97,57 %
11.02.2023 08:00 5,6 C 5,0 C 1,7 C 95 % 1034,6 hPa 0,0 l/m 0,00 h 0,00 h 6 W/m 11,2 km/h (2 Bft) 96,52 %
11.02.2023 09:00 5,9 C 5,4 C 2,2 C 95 % 1035,0 hPa 0,0 l/m 0,00 h 0,00 h 28 W/m 8,7 km/h (2 Bft) 96,55 %
11.02.2023 10:00 6,3 C 6,1 C 2,8 C 95 % 1035,4 hPa 0,0 l/m 0,00 h 0,00 h 65 W/m 11,6 km/h (2 Bft) 96,32 %
11.02.2023 11:00 6,7 C 6,3 C 3,2 C 95 % 1035,9 hPa 0,0 l/m 0,00 h 0,00 h 56 W/m 10,0 km/h (2 Bft) 96,35 %
11.02.2023 12:00 7,1 C 6,8 C 3,4 C 94 % 1036,0 hPa 0,0 l/m 0,00 h 0,00 h 70 W/m 9,8 km/h (2 Bft) 96,64 %
11.02.2023 13:00 7,4 C 7,2 C 4,1 C 94 % 1035,9 hPa 0,0 l/m 0,00 h 0,00 h 80 W/m 9,5 km/h (2 Bft) 96,69 %
11.02.2023 14:00 7,9 C 7,9 C 4,5 C 93 % 1035,6 hPa 0,0 l/m 0,00 h 0,00 h 103 W/m 9,5 km/h (2 Bft) 96,82 %
11.02.2023 15:00 8,5 C 8,6 C 5,0 C 92 % 1035,6 hPa 0,0 l/m 0,00 h 0,00 h 110 W/m 9,2 km/h (2 Bft) 97,78 %
11.02.2023 16:00 8,6 C 8,1 C 4,8 C 91 % 1035,8 hPa 0,0 l/m 0,00 h 0,00 h 46 W/m 7,5 km/h (2 Bft) 96,14 %
11.02.2023 17:00 8,2 C 7,5 C 4,3 C 92 % 1036,1 hPa 0,0 l/m 0,00 h 0,00 h 12 W/m 6,6 km/h (2 Bft) 97,69 %
11.02.2023 18:00 7,9 C 7,2 C 3,9 C 93 % 1036,4 hPa 0,0 l/m 0,00 h 0,00 h 0 W/m 6,2 km/h (2 Bft) 93,90 %
11.02.2023 19:00 7,9 C 7,2 C 3,9 C 93 % 1037,0 hPa 0,0 l/m 0,00 h 0,00 h 0 W/m 6,3 km/h (2 Bft) 97,01 %
11.02.2023 20:00 7,8 C 7,2 C 3,9 C 94 % 1037,4 hPa 0,0 l/m 0,00 h 0,00 h 0 W/m 5,5 km/h (1 Bft) 96,88 %
11.02.2023 21:00 7,6 C 6,9 C 3,9 C 94 % 1037,8 hPa 0,0 l/m 0,00 h 0,00 h 0 W/m 4,1 km/h (1 Bft) 97,79 %
11.02.2023 22:00 7,4 C 6,7 C 3,5 C 95 % 1038,1 hPa 0,0 l/m 0,00 h 0,00 h 0 W/m 4,1 km/h (1 Bft) 96,73 %
11.02.2023 23:00 7,3 C 6,7 C 3,3 C 95 % 1038,3 hPa 0,0 l/m 0,00 h 0,00 h 0 W/m 3,8 km/h (1 Bft) 96,29 %
12.02.2023 00:00 7,2 C 6,7 C 3,3 C 95 % 1038,5 hPa 0,0 l/m 0,00 h 0,00 h 0 W/m 2,9 km/h (1 Bft) 96,29 %
12.02.2023 01:00 7,1 C 6,3 C 3,3 C 95 % 1038,7 hPa 0,0 l/m 0,00 h 0,00 h 0 W/m 0,4 km/h (0 Bft) 97,65 %
12.02.2023 02:00 6,9 C 6,1 C 3,3 C 95 % 1038,6 hPa 0,0 l/m 0,00 h 0,00 h 0 W/m 1,1 km/h (0 Bft) 97,10 %
12.02.2023 03:00 6,8 C 6,1 C 3,1 C 95 % 1038,4 hPa 0,0 l/m 0,00 h 0,00 h 0 W/m 0,7 km/h (0 Bft) 93,76 %
12.02.2023 04:00 6,6 C 5,8 C 2,8 C 95 % 1038,3 hPa 0,0 l/m 0,00 h 0,00 h 0 W/m 0,6 km/h (0 Bft) 99,52 %
12.02.2023 05:00 6,5 C 6,0 C 2,8 C 95 % 1038,5 hPa 0,0 l/m 0,00 h 0,00 h 0 W/m 0,5 km/h (0 Bft) 97,15 %
12.02.2023 06:00 6,4 C 6,1 C 3,0 C 95 % 1038,8 hPa 0,0 l/m 0,00 h 0,00 h 0 W/m 0,6 km/h (0 Bft) 97,01 %
12.02.2023 07:00 6,5 C 5,8 C 2,8 C 95 % 1039,0 hPa 0,0 l/m 0,00 h 0,00 h 0 W/m 0,3 km/h (0 Bft) 97,79 %
12.02.2023 08:00 6,4 C 5,7 C 2,8 C 95 % 1039,3 hPa 0,0 l/m 0,00 h 0,00 h 12 W/m 1,4 km/h (1 Bft) 97,28 %
12.02.2023 09:00 6,6 C 6,5 C 3,4 C 96 % 1039,6 hPa 0,0 l/m 0,00 h 0,00 h 39 W/m 2,0 km/h (1 Bft) 96,02 %
12.02.2023 10:00 7,2 C 7,6 C 4,2 C 96 % 1039,8 hPa 0,0 l/m 0,00 h 0,00 h 80 W/m 0,0 km/h (0 Bft) 98,20 %
12.02.2023 11:00 8,1 C 9,0 C 5,2 C 95 % 1039,9 hPa 0,0 l/m 0,00 h 0,00 h 121 W/m 1,7 km/h (1 Bft) 95,85 %
12.02.2023 12:00 8,8 C 9,3 C 5,6 C 89 % 1039,7 hPa 0,0 l/m 0,00 h 0,00 h 100 W/m 0,2 km/h (0 Bft) 98,52 %
12.02.2023 13:00 9,4 C 9,8 C 5,8 C 85 % 1039,2 hPa 0,0 l/m 0,00 h 0,00 h 116 W/m 0,0 km/h (0 Bft) 97,20 %
12.02.2023 14:00 9,9 C 10,3 C 6,1 C 82 % 1038,6 hPa 0,0 l/m 0,00 h 0,00 h 116 W/m 1,9 km/h (1 Bft) 96,38 %
12.02.2023 15:00 9,9 C 9,7 C 5,9 C 82 % 1038,4 hPa 0,0 l/m 0,00 h 0,00 h 65 W/m 0,0 km/h (0 Bft) 96,74 %
12.02.2023 16:00 9,6 C 9,0 C 5,4 C 84 % 1038,2 hPa 0,0 l/m 0,00 h 0,00 h 29 W/m 0,0 km/h (0 Bft) 97,94 %
12.02.2023 17:00 9,2 C 8,2 C 4,9 C 85 % 1038,0 hPa 0,0 l/m 0,00 h 0,00 h 9 W/m 0,0 km/h (0 Bft) 95,67 %
12.02.2023 18:00 8,7 C 7,8 C 4,4 C 85 % 1038,2 hPa 0,0 l/m 0,00 h 0,00 h 0 W/m 0,0 km/h (0 Bft) 98,67 %
12.02.2023 19:00 8,4 C 7,1 C 3,6 C 86 % 1038,2 hPa 0,0 l/m 0,00 h 0,00 h 0 W/m 0,0 km/h (0 Bft) 94,61 %
12.02.2023 20:00 7,8 C 6,5 C 3,2 C 88 % 1038,1 hPa 0,0 l/m 0,00 h 0,00 h 0 W/m 0,0 km/h (0 Bft) 95,42 %
12.02.2023 21:00 7,3 C 6,5 C 3,3 C 91 % 1037,9 hPa 0,0 l/m 0,00 h 0,00 h 0 W/m 0,0 km/h (0 Bft) 96,72 %
12.02.2023 22:00 7,5 C 6,7 C 3,4 C 92 % 1038,0 hPa 0,0 l/m 0,00 h 0,00 h 0 W/m 0,0 km/h (0 Bft) 97,73 %
12.02.2023 23:00 7,5 C 6,7 C 3,5 C 93 % 1037,9 hPa 0,0 l/m 0,00 h 0,00 h 0 W/m 0,0 km/h (0 Bft) 96,22 %
Min-Datum _ 08.02.23 07.02.23 08.02.23 08.02.23 09.02.23 - - - - 06.02.23 08.02.23
_ Min-Zeit 06:56 06:46 03:48 14:10 06:58 - - - - 00:50 11:40
Minimum _ -3,0 C -3,9 C -6,7 C 43 % 1032,0 hPa - - - - 0,0 km/h (0 Bft) 3,57 %
Max-Datum _ 12.02.23 07.02.23 12.02.23 06.02.23 06.02.23 06.02.23 08.02.23 10.02.23 08.02.23 10.02.23 06.02.23
_ Max-Zeit 14:48 10:34 13:26 13:14 01:02 09:08 10:06 20:56 13:04 20:50 00:14
Maximum _ 10,1 C 16,7 C 6,1 C 99 % 1042,8 hPa 0,2 l/m 0,08 h 0,03 h 450 W/m 32,2 km/h
SO (5 Bft)
100,00 %
Durchschnitt _ 3,8 C 3,7 C -0,3 C 84 % 1037,6 hPa #0,2 l/m #24:02 h #6 min. 131 W/m 5,8 km/h (2 Bft) 95,38 %
© 2023 W. Hausmann